Terminal Aerodrome Forecast
Issued by NWS Blacksburg, VA

Home | Current Version | Previous Version | Text Only | Print | Product List | Glossary On
Versions: 1 2 3 4 5 6 7 8 9 10 11 12 13
000
FTUS41 KRNK 271723
TAFBLF
TAF
KBLF 271723Z 2718/2818 30006KT P6SM SCT050 BKN100
     FM271900 23006KT P6SM VCTS BKN045CB OVC090
     FM280000 VRB04KT P6SM BKN045 OVC100
     FM280600 15004KT P6SM SCT050 SCT100 BKN250
     FM281400 21007KT P6SM BKN050=

USA.gov is the U.S. government's official web portal to all federal, state and local government web resources and services.